createdAt,value
2019-04-21T00:01:45.141Z,60.10
2019-04-21T00:04:24.880Z,60.20
2019-04-21T00:07:04.477Z,63.90
2019-04-21T00:09:32.675Z,59.90
2019-04-21T00:12:04.254Z,57.70
2019-04-21T00:14:23.727Z,60.80
2019-04-21T00:16:51.074Z,65.80
2019-04-21T00:19:20.813Z,60.10
2019-04-21T00:21:51.016Z,67.50
2019-04-21T00:24:32.390Z,65.20
2019-04-21T00:27:03.771Z,68.60
2019-04-21T00:29:38.381Z,66.70
2019-04-21T00:32:03.344Z,67.00
2019-04-21T00:34:17.668Z,67.80
2019-04-21T00:36:57.359Z,67.50
2019-04-21T00:39:45.020Z,69.60
2019-04-21T00:42:08.643Z,65.70
2019-04-21T00:44:28.404Z,61.80
2019-04-21T00:47:01.909Z,65.40
2019-04-21T00:49:34.351Z,61.50
2019-04-21T00:52:22.096Z,66.30
2019-04-21T00:55:01.734Z,64.40
2019-04-21T00:57:29.362Z,72.70
2019-04-21T00:59:54.373Z,71.50
2019-04-21T01:02:15.447Z,67.60
2019-04-21T01:04:53.894Z,72.60
2019-04-21T01:07:25.697Z,73.10
2019-04-21T01:09:45.361Z,75.60
2019-04-21T01:12:19.339Z,79.30
2019-04-21T01:14:59.522Z,76.00
2019-04-21T01:17:21.766Z,73.70
2019-04-21T01:19:43.920Z,72.90
2019-04-21T01:21:59.391Z,73.50
2019-04-21T01:24:33.039Z,73.90
2019-04-21T01:27:06.371Z,77.80
2019-04-21T01:29:46.024Z,73.70
2019-04-21T01:32:40.585Z,78.80
2019-04-21T01:34:47.054Z,77.80
2019-04-21T01:37:14.124Z,76.40
2019-04-21T01:39:53.297Z,76.80
2019-04-21T01:42:19.121Z,79.20
2019-04-21T01:44:52.301Z,74.50
2019-04-21T01:47:17.350Z,79.00
2019-04-21T01:49:41.472Z,74.90
2019-04-21T01:52:24.764Z,79.60
2019-04-21T01:55:00.285Z,77.70
2019-04-21T01:57:45.277Z,72.40
2019-04-21T02:00:12.564Z,74.50
2019-04-21T02:02:54.159Z,74.90
2019-04-21T02:05:28.360Z,81.20
2019-04-21T02:07:53.430Z,79.80
2019-04-21T02:10:21.130Z,82.50
2019-04-21T02:12:52.524Z,78.30
2019-04-21T02:15:23.716Z,82.40
2019-04-21T02:17:49.875Z,80.40
2019-04-21T02:20:12.020Z,76.40
2019-04-21T02:23:07.309Z,77.90
2019-04-21T02:25:21.790Z,79.60
2019-04-21T02:27:54.694Z,75.50
2019-04-21T02:30:29.555Z,81.90
2019-04-21T02:33:18.780Z,78.50
2019-04-21T02:35:52.776Z,76.20
2019-04-21T02:40:38.848Z,75.00
2019-04-21T02:45:30.114Z,77.00
2019-04-21T02:48:04.526Z,80.70
2019-04-21T02:50:34.059Z,79.70
2019-04-21T02:53:01.272Z,78.90
2019-04-21T02:55:29.029Z,78.00
2019-04-21T02:58:09.780Z,77.60
2019-04-21T03:00:49.576Z,79.60
2019-04-21T03:03:16.134Z,77.60
2019-04-21T03:08:40.386Z,77.70
2019-04-21T03:13:23.459Z,84.40
2019-04-21T03:15:49.381Z,82.00
2019-04-21T03:20:51.067Z,81.50
2019-04-21T03:23:36.271Z,77.30
2019-04-21T03:33:59.514Z,82.20
2019-04-21T03:36:19.206Z,83.40
2019-04-21T03:38:18.928Z,87.30
2019-04-21T03:41:04.521Z,79.90
2019-04-21T03:43:20.827Z,80.10
2019-04-21T03:45:49.002Z,81.10
2019-04-21T03:48:23.937Z,78.30
2019-04-21T03:51:07.242Z,83.70
2019-04-21T03:53:18.663Z,78.50
2019-04-21T03:55:52.998Z,82.90
2019-04-21T04:01:05.868Z,78.90
2019-04-21T04:04:00.651Z,78.90
2019-04-21T04:06:22.575Z,80.10
2019-04-21T04:11:39.092Z,83.70
2019-04-21T04:14:20.224Z,88.70
2019-04-21T04:18:57.863Z,89.90
2019-04-21T04:24:05.000Z,89.40
2019-04-21T04:26:39.494Z,84.10
2019-04-21T04:36:53.179Z,84.50
2019-04-21T04:44:42.098Z,82.50
2019-04-21T04:47:05.495Z,81.70
2019-04-21T04:49:39.015Z,82.90
2019-04-21T04:52:09.424Z,84.10
2019-04-21T04:54:39.065Z,80.50
2019-04-21T04:56:58.584Z,88.10
2019-04-21T04:59:33.783Z,82.80
2019-04-21T05:02:00.187Z,83.80
2019-04-21T05:04:30.615Z,88.50
2019-04-21T05:09:23.512Z,89.90
2019-04-21T05:11:50.875Z,86.40
2019-04-21T05:14:39.723Z,86.80
2019-04-21T05:19:21.152Z,79.00
2019-04-21T05:21:45.457Z,89.00
2019-04-21T05:24:13.622Z,79.40
2019-04-21T05:26:46.171Z,85.30
2019-04-21T05:29:12.377Z,87.60
2019-04-21T05:31:56.473Z,88.70
2019-04-21T05:34:28.987Z,85.10
2019-04-21T05:37:14.138Z,80.80
2019-04-21T05:39:42.000Z,78.40
2019-04-21T05:42:05.057Z,83.20
2019-04-21T05:45:00.139Z,78.80
2019-04-21T05:47:26.309Z,81.20
2019-04-21T05:49:49.757Z,84.30
2019-04-21T05:52:19.658Z,80.80
2019-04-21T05:55:01.164Z,79.20
2019-04-21T05:57:21.996Z,77.40
2019-04-21T05:59:53.194Z,75.10
2019-04-21T06:02:42.019Z,78.80
2019-04-21T06:05:05.588Z,77.90
2019-04-21T06:07:26.111Z,78.60
2019-04-21T06:10:02.780Z,76.00
2019-04-21T06:12:29.162Z,75.10
2019-04-21T06:15:14.229Z,73.90
2019-04-21T06:17:35.111Z,75.80
2019-04-21T06:20:01.773Z,73.40
2019-04-21T06:22:23.815Z,71.60
2019-04-21T06:29:59.951Z,72.80
2019-04-21T06:42:33.704Z,68.10
2019-04-21T06:45:07.284Z,66.30
2019-04-21T06:47:43.582Z,67.10
2019-04-21T06:50:01.958Z,68.40
2019-04-21T06:52:46.569Z,65.70
2019-04-21T06:55:10.268Z,64.70
2019-04-21T06:57:34.763Z,65.00
2019-04-21T06:59:59.968Z,62.40
2019-04-21T07:02:59.979Z,63.30
2019-04-21T07:05:20.338Z,61.00
2019-04-21T07:07:35.218Z,61.80
2019-04-21T07:10:22.515Z,61.60
2019-04-21T07:12:37.231Z,60.40
2019-04-21T07:15:03.380Z,61.20
2019-04-21T07:17:35.810Z,59.10
2019-04-21T07:20:07.207Z,60.20
2019-04-21T07:22:36.904Z,59.00
2019-04-21T07:25:10.499Z,58.10
2019-04-21T07:27:37.687Z,57.90
2019-04-21T07:30:04.285Z,56.30
2019-04-21T07:32:36.053Z,56.60
2019-04-21T07:37:35.319Z,55.80
2019-04-21T07:40:03.693Z,55.30
2019-04-21T07:42:35.684Z,54.80
2019-04-21T07:44:57.982Z,54.50
2019-04-21T07:47:44.803Z,53.10
2019-04-21T07:50:11.123Z,50.80
2019-04-21T07:52:39.519Z,51.00
2019-04-21T07:55:22.107Z,52.40
2019-04-21T07:57:35.454Z,51.30
2019-04-21T08:00:21.325Z,51.60
2019-04-21T08:02:47.685Z,50.30
2019-04-21T08:05:14.189Z,49.80
2019-04-21T08:10:10.485Z,44.50
2019-04-21T08:12:37.022Z,44.90
2019-04-21T08:15:15.760Z,44.20
2019-04-21T08:17:41.592Z,42.90
2019-04-21T08:20:09.255Z,41.60
2019-04-21T08:22:46.817Z,44.70
2019-04-21T08:25:09.160Z,38.90
2019-04-21T08:27:47.809Z,37.90
2019-04-21T08:30:14.299Z,38.40
2019-04-21T08:32:57.605Z,38.10
2019-04-21T08:35:34.643Z,38.30
2019-04-21T08:37:39.589Z,38.50
2019-04-21T08:40:17.663Z,40.30
2019-04-21T08:42:49.098Z,38.60
2019-04-21T08:45:14.747Z,37.80
2019-04-21T08:47:50.291Z,37.80
2019-04-21T08:50:08.254Z,37.60
2019-04-21T08:55:32.184Z,38.30
2019-04-21T09:00:46.821Z,37.20
2019-04-21T09:03:21.365Z,36.50
2019-04-21T09:05:53.896Z,36.00
2019-04-21T09:08:20.447Z,37.70
2019-04-21T09:10:47.243Z,36.90
2019-04-21T09:13:21.208Z,37.30
2019-04-21T09:15:47.463Z,36.50
2019-04-21T09:18:13.347Z,37.00
2019-04-21T09:20:54.764Z,36.20
2019-04-21T09:23:13.570Z,36.00
2019-04-21T09:28:14.619Z,35.00
2019-04-21T09:30:37.466Z,34.20
2019-04-21T09:32:59.831Z,35.40
2019-04-21T09:35:27.283Z,35.40
2019-04-21T09:38:03.968Z,34.40
2019-04-21T09:40:30.108Z,35.30
2019-04-21T09:43:01.077Z,34.50
2019-04-21T09:45:24.565Z,33.20
2019-04-21T09:48:00.848Z,34.70
2019-04-21T09:50:22.611Z,32.50
2019-04-21T09:52:58.281Z,31.10
2019-04-21T09:55:23.211Z,32.70
2019-04-21T09:57:55.696Z,38.40
2019-04-21T10:00:26.608Z,31.50
2019-04-21T10:02:59.975Z,33.20
2019-04-21T10:05:21.419Z,35.00
2019-04-21T10:07:50.775Z,30.50
2019-04-21T10:10:20.114Z,30.40
2019-04-21T10:12:49.847Z,33.80
2019-04-21T10:15:18.857Z,29.80
2019-04-21T10:17:54.040Z,28.90
2019-04-21T10:20:22.756Z,30.00
2019-04-21T10:22:51.143Z,29.50
2019-04-21T10:25:20.748Z,29.10
2019-04-21T10:27:49.590Z,30.60
2019-04-21T10:30:18.389Z,28.10
2019-04-21T10:32:48.205Z,28.30
2019-04-21T10:35:20.678Z,28.70
2019-04-21T10:37:59.413Z,29.20
2019-04-21T10:40:15.891Z,29.20
2019-04-21T10:42:44.337Z,30.20
2019-04-21T10:45:12.951Z,30.40
2019-04-21T10:47:41.358Z,28.30
2019-04-21T10:50:10.899Z,28.10
2019-04-21T10:52:58.628Z,27.10
2019-04-21T10:55:44.645Z,27.20
2019-04-21T10:58:06.649Z,31.40
2019-04-21T11:00:36.609Z,27.20
2019-04-21T11:03:24.748Z,27.50
2019-04-21T11:05:55.028Z,26.10
2019-04-21T11:08:30.298Z,23.40
2019-04-21T11:10:54.029Z,24.50
2019-04-21T11:13:22.995Z,23.10
2019-04-21T11:15:51.464Z,23.70
2019-04-21T11:18:19.899Z,21.00
2019-04-21T11:20:48.949Z,22.00
2019-04-21T11:23:19.631Z,22.80
2019-04-21T11:25:48.172Z,21.90
2019-04-21T11:28:18.525Z,22.00
2019-04-21T11:30:47.057Z,22.90
2019-04-21T11:33:15.533Z,24.00
2019-04-21T11:35:43.904Z,23.60
2019-04-21T11:38:25.637Z,23.50
2019-04-21T11:40:53.959Z,23.20
2019-04-21T11:43:23.931Z,23.30
2019-04-21T11:45:52.684Z,24.40
2019-04-21T11:48:28.442Z,27.70
2019-04-21T11:50:57.477Z,22.80
2019-04-21T11:53:25.957Z,22.80
2019-04-21T11:55:55.545Z,23.70
2019-04-21T11:58:26.236Z,23.60
2019-04-21T12:00:55.784Z,23.10
2019-04-21T12:03:24.267Z,23.50
2019-04-21T12:05:53.184Z,23.40
2019-04-21T12:08:29.995Z,25.20
2019-04-21T12:10:51.525Z,22.30
2019-04-21T12:13:20.379Z,22.20
2019-04-21T12:15:49.192Z,22.00
2019-04-21T12:18:17.902Z,22.30
2019-04-21T12:20:47.325Z,25.10
2019-04-21T12:23:16.328Z,22.60
2019-04-21T12:25:49.748Z,22.20
2019-04-21T12:28:19.590Z,21.80
2019-04-21T12:30:49.819Z,23.40
2019-04-21T12:33:38.120Z,21.80
2019-04-21T12:36:06.753Z,21.50
2019-04-21T12:38:42.757Z,20.80
2019-04-21T12:41:06.550Z,20.70
2019-04-21T12:43:35.176Z,21.50
2019-04-21T12:46:04.295Z,23.40
2019-04-21T12:48:33.764Z,23.20
2019-04-21T12:51:03.767Z,23.30
2019-04-21T12:53:33.848Z,23.40
2019-04-21T12:56:02.141Z,23.00
2019-04-21T12:58:31.135Z,23.40
2019-04-21T13:01:00.822Z,23.20
2019-04-21T13:03:30.399Z,23.30
2019-04-21T13:05:58.956Z,23.40
2019-04-21T13:08:27.357Z,22.90
2019-04-21T13:10:56.240Z,23.40
2019-04-21T13:13:26.008Z,23.70
2019-04-21T13:15:55.751Z,23.40
2019-04-21T13:18:24.308Z,24.40
2019-04-21T13:20:53.891Z,24.80
2019-04-21T13:23:23.156Z,23.10
2019-04-21T13:25:51.940Z,21.30
2019-04-21T13:28:20.792Z,21.70
2019-04-21T13:30:50.514Z,21.90
2019-04-21T13:33:19.087Z,23.70
2019-04-21T13:35:48.862Z,22.20
2019-04-21T13:38:26.961Z,23.00
2019-04-21T13:41:05.291Z,22.30
2019-04-21T13:43:20.943Z,22.70
2019-04-21T13:45:49.951Z,23.10
2019-04-21T13:48:18.931Z,22.10
2019-04-21T13:50:47.375Z,22.10
2019-04-21T13:53:16.641Z,21.90
2019-04-21T13:55:46.587Z,22.30
2019-04-21T13:58:16.664Z,23.40
2019-04-21T14:00:45.559Z,23.60
2019-04-21T14:03:14.530Z,22.80
2019-04-21T14:05:44.528Z,22.10
2019-04-21T14:08:13.489Z,22.00
2019-04-21T14:10:42.074Z,22.30
2019-04-21T14:13:10.456Z,22.70
2019-04-21T14:15:39.966Z,22.80
2019-04-21T14:18:08.876Z,22.70
2019-04-21T14:20:37.477Z,24.50
2019-04-21T14:23:15.624Z,22.80
2019-04-21T14:25:37.442Z,22.70
2019-04-21T14:28:06.145Z,22.10
2019-04-21T14:30:34.727Z,22.50
2019-04-21T14:33:04.378Z,23.30
2019-04-21T14:35:32.920Z,23.60
2019-04-21T14:38:02.609Z,24.00
2019-04-21T14:40:33.723Z,23.50
2019-04-21T14:43:02.632Z,23.70
2019-04-21T14:45:34.539Z,23.70
2019-04-21T14:48:23.248Z,24.60
2019-04-21T14:51:06.535Z,23.00
2019-04-21T14:53:39.896Z,22.90
2019-04-21T14:56:09.121Z,22.90
2019-04-21T14:58:37.653Z,23.80
2019-04-21T15:01:08.177Z,24.20
2019-04-21T15:03:37.589Z,24.00
2019-04-21T15:06:07.509Z,24.50
2019-04-21T15:08:37.264Z,24.80
2019-04-21T15:11:07.095Z,24.30
2019-04-21T15:13:35.671Z,24.50
2019-04-21T15:16:04.688Z,24.00
2019-04-21T15:18:33.156Z,24.20
2019-04-21T15:21:01.569Z,24.10
2019-04-21T15:23:30.550Z,23.40
2019-04-21T15:26:00.075Z,23.50
2019-04-21T15:28:31.979Z,24.50
2019-04-21T15:30:58.708Z,25.40
2019-04-21T15:33:28.621Z,25.30
2019-04-21T15:35:57.482Z,24.80
2019-04-21T15:38:25.991Z,24.70
2019-04-21T15:40:57.995Z,25.00
2019-04-21T15:43:24.551Z,24.80
2019-04-21T15:45:53.031Z,26.60
2019-04-21T15:48:22.314Z,24.30
2019-04-21T15:50:51.799Z,24.40
2019-04-21T15:53:23.466Z,25.80
2019-04-21T15:55:59.415Z,25.70
2019-04-21T15:58:46.377Z,24.90
2019-04-21T16:01:25.826Z,24.80
2019-04-21T16:03:56.964Z,25.30
2019-04-21T16:06:25.643Z,25.40
2019-04-21T16:08:57.108Z,25.70
2019-04-21T16:11:24.236Z,25.80
2019-04-21T16:13:52.622Z,25.10
2019-04-21T16:16:23.602Z,25.20
2019-04-21T16:18:52.176Z,25.80
2019-04-21T16:21:22.067Z,25.70
2019-04-21T16:23:50.790Z,25.80
2019-04-21T16:26:20.366Z,25.40
2019-04-21T16:28:49.110Z,26.00
2019-04-21T16:31:18.493Z,25.70
2019-04-21T16:33:47.172Z,25.60
2019-04-21T16:36:17.083Z,25.60
2019-04-21T16:38:47.156Z,25.30
2019-04-21T16:41:16.124Z,25.60
2019-04-21T16:43:45.031Z,25.90
2019-04-21T16:46:13.748Z,26.10
2019-04-21T16:48:42.205Z,26.30
2019-04-21T16:51:10.879Z,26.00
2019-04-21T16:53:41.867Z,26.20
2019-04-21T16:56:20.965Z,26.50
2019-04-21T16:58:50.995Z,26.70
2019-04-21T17:01:24.285Z,26.30
2019-04-21T17:03:54.678Z,26.10
2019-04-21T17:06:23.128Z,26.70
2019-04-21T17:08:52.674Z,26.70
2019-04-21T17:11:27.176Z,26.90
2019-04-21T17:13:52.001Z,26.50
2019-04-21T17:16:50.853Z,26.70
2019-04-21T17:18:59.517Z,26.70
2019-04-21T17:21:21.558Z,27.10
2019-04-21T17:23:50.655Z,27.30
2019-04-21T17:26:19.328Z,27.30
2019-04-21T17:28:48.870Z,27.40
2019-04-21T17:31:18.176Z,27.50
2019-04-21T17:33:48.360Z,28.10
2019-04-21T17:36:17.156Z,27.60
2019-04-21T17:38:45.894Z,27.90
2019-04-21T17:41:27.067Z,28.10
2019-04-21T17:43:45.544Z,28.20
2019-04-21T17:46:22.618Z,28.30
2019-04-21T17:48:45.124Z,28.30
2019-04-21T17:51:21.399Z,28.60
2019-04-21T17:53:54.990Z,28.80
2019-04-21T17:56:47.467Z,28.80
2019-04-21T17:59:09.614Z,29.00
2019-04-21T18:01:42.009Z,29.10
2019-04-21T18:04:14.862Z,29.10
2019-04-21T18:06:47.975Z,29.30
2019-04-21T18:09:22.066Z,29.50
2019-04-21T18:11:46.912Z,29.50
2019-04-21T18:13:57.524Z,29.50
2019-04-21T18:16:35.859Z,29.90
2019-04-21T18:18:56.988Z,29.40
2019-04-21T18:21:30.610Z,29.40
2019-04-21T18:24:07.195Z,29.40
2019-04-21T18:26:40.551Z,29.30
2019-04-21T18:29:01.260Z,29.40
2019-04-21T18:31:33.796Z,29.40
2019-04-21T18:34:12.528Z,29.50
2019-04-21T18:36:43.179Z,29.90
2019-04-21T18:39:34.265Z,29.90
2019-04-21T18:42:04.905Z,29.90
2019-04-21T18:44:53.478Z,30.00
2019-04-21T18:47:23.966Z,30.00
2019-04-21T18:49:41.833Z,30.20
2019-04-21T18:52:19.224Z,30.30
2019-04-21T18:54:54.943Z,30.30
2019-04-21T18:57:21.954Z,30.40
2019-04-21T18:59:43.377Z,30.80
2019-04-21T19:02:11.213Z,31.00
2019-04-21T19:04:41.331Z,31.30
2019-04-21T19:07:19.854Z,31.40
2019-04-21T19:12:36.627Z,31.30
2019-04-21T19:14:56.436Z,31.90
2019-04-21T19:18:04.959Z,31.80
2019-04-21T19:22:34.157Z,32.00
2019-04-21T19:25:08.387Z,32.10
2019-04-21T19:27:26.379Z,32.60
2019-04-21T19:30:05.138Z,32.40
2019-04-21T19:32:28.868Z,32.60
2019-04-21T19:34:46.465Z,32.50
2019-04-21T19:37:17.116Z,32.70
2019-04-21T19:39:56.677Z,33.50
2019-04-21T19:42:22.724Z,34.20
2019-04-21T19:44:59.251Z,34.00
2019-04-21T19:47:36.745Z,34.10
2019-04-21T19:50:00.292Z,34.30
2019-04-21T19:52:26.957Z,34.40
2019-04-21T19:54:46.453Z,34.00
2019-04-21T19:57:13.324Z,33.90
2019-04-21T19:59:48.076Z,34.40
2019-04-21T20:02:12.268Z,35.70
2019-04-21T20:04:50.135Z,35.30
2019-04-21T20:07:26.505Z,35.60
2019-04-21T20:10:05.226Z,35.10
2019-04-21T20:12:36.936Z,35.10
2019-04-21T20:15:06.357Z,35.90
2019-04-21T20:17:31.277Z,35.80
2019-04-21T20:19:42.455Z,35.70
2019-04-21T20:22:11.407Z,36.10
2019-04-21T20:24:49.174Z,36.30
2019-04-21T20:27:17.649Z,36.80
2019-04-21T20:29:56.206Z,36.00
2019-04-21T20:32:45.313Z,36.40
2019-04-21T20:35:04.219Z,37.10
2019-04-21T20:37:25.253Z,36.70
2019-04-21T20:39:47.316Z,36.50
2019-04-21T20:42:24.074Z,37.50
2019-04-21T20:45:16.025Z,37.70
2019-04-21T20:47:22.836Z,36.90
2019-04-21T20:49:53.271Z,37.30
2019-04-21T20:52:38.368Z,37.90
2019-04-21T20:54:55.106Z,37.20
2019-04-21T20:57:27.376Z,37.80
2019-04-21T20:59:58.043Z,37.40
2019-04-21T21:02:30.111Z,38.50
2019-04-21T21:04:51.493Z,38.10
2019-04-21T21:07:41.572Z,37.90
2019-04-21T21:10:01.644Z,39.40
2019-04-21T21:12:41.749Z,39.10
2019-04-21T21:14:55.467Z,39.30
2019-04-21T21:20:00.857Z,38.50
2019-04-21T21:22:29.062Z,39.10
2019-04-21T21:24:55.786Z,38.80
2019-04-21T21:27:30.867Z,39.40
2019-04-21T21:29:58.369Z,40.10
2019-04-21T21:32:34.209Z,39.90
2019-04-21T21:34:56.860Z,40.00
2019-04-21T21:40:04.051Z,38.60
2019-04-21T21:42:22.171Z,39.90
2019-04-21T21:44:50.537Z,40.00
2019-04-21T21:47:28.024Z,39.00
2019-04-21T21:49:57.764Z,41.50
2019-04-21T21:52:29.704Z,40.60
2019-04-21T21:54:45.520Z,40.70
2019-04-21T21:57:14.695Z,41.30
2019-04-21T21:59:43.581Z,41.00
2019-04-21T22:02:16.646Z,43.90
2019-04-21T22:04:50.967Z,44.00
2019-04-21T22:07:17.103Z,44.90
2019-04-21T22:09:44.230Z,44.20
2019-04-21T22:12:14.164Z,44.30
2019-04-21T22:14:48.194Z,42.80
2019-04-21T22:17:28.950Z,41.50
2019-04-21T22:20:05.352Z,44.00
2019-04-21T22:22:27.728Z,45.10
2019-04-21T22:24:53.186Z,44.00
2019-04-21T22:27:14.848Z,43.50
2019-04-21T22:29:48.229Z,44.60
2019-04-21T22:32:17.837Z,44.80
2019-04-21T22:34:50.230Z,43.70
2019-04-21T22:37:30.856Z,45.60
2019-04-21T22:39:57.878Z,44.40
2019-04-21T22:42:21.619Z,47.80
2019-04-21T22:44:46.160Z,47.60
2019-04-21T22:47:20.610Z,46.30
2019-04-21T22:49:44.816Z,48.70
2019-04-21T22:52:18.645Z,46.40
2019-04-21T22:54:46.377Z,47.80
2019-04-21T22:57:18.363Z,49.30
2019-04-21T22:59:46.335Z,48.90
2019-04-21T23:02:21.115Z,48.80
2019-04-21T23:04:49.344Z,50.80
2019-04-21T23:07:17.271Z,50.00
2019-04-21T23:09:45.398Z,51.30
2019-04-21T23:12:21.819Z,54.40
2019-04-21T23:14:53.128Z,54.90
2019-04-21T23:17:32.318Z,54.50
2019-04-21T23:20:05.691Z,55.90
2019-04-21T23:22:34.059Z,56.80
2019-04-21T23:25:03.709Z,57.30
2019-04-21T23:27:33.723Z,57.90
2019-04-21T23:30:08.114Z,58.30
2019-04-21T23:32:27.605Z,59.10
2019-04-21T23:34:45.964Z,59.00
2019-04-21T23:37:20.308Z,59.70
2019-04-21T23:39:45.480Z,62.00
2019-04-21T23:42:22.566Z,63.30
2019-04-21T23:44:49.079Z,59.10
2019-04-21T23:47:30.425Z,61.70
2019-04-21T23:49:53.146Z,63.50
2019-04-21T23:52:16.502Z,65.00
2019-04-21T23:54:45.365Z,63.30
2019-04-21T23:57:20.673Z,63.10
2019-04-21T23:59:48.709Z,62.80
